createdAt,value
2023-04-01T00:03:45.593Z,98831.78
2023-04-01T00:08:47.665Z,98849.06
2023-04-01T00:13:49.575Z,98849.06
2023-04-01T00:18:51.939Z,98855.31
2023-04-01T00:23:53.569Z,98860.59
2023-04-01T00:28:55.195Z,98858.47
2023-04-01T00:33:57.471Z,98858.84
2023-04-01T00:39:00.217Z,98864.06
2023-04-01T00:44:24.157Z,98871.66
2023-04-01T00:49:49.501Z,98884.69
2023-04-01T00:54:57.540Z,98887.59
2023-04-01T01:00:00.322Z,98893.50
2023-04-01T01:05:02.476Z,98899.41
2023-04-01T01:10:41.097Z,98909.63
2023-04-01T01:15:48.655Z,98915.53
2023-04-01T01:20:56.196Z,98926.53
2023-04-01T01:26:13.345Z,98924.59
2023-04-01T01:31:29.074Z,98926.94
2023-04-01T01:36:36.867Z,98932.22
2023-04-01T01:41:45.134Z,98943.41
2023-04-01T01:46:48.672Z,98940.66
2023-04-01T01:51:50.537Z,98952.66
2023-04-01T01:57:16.759Z,98961.28
2023-04-01T02:02:23.857Z,98972.06
2023-04-01T02:07:32.345Z,98971.81
2023-04-01T02:12:38.357Z,98989.72
2023-04-01T02:17:46.370Z,98996.06
2023-04-01T02:22:58.836Z,98999.28
2023-04-01T02:28:01.434Z,99006.34
2023-04-01T02:33:05.048Z,99013.22
2023-04-01T02:38:07.360Z,99025.81
2023-04-01T02:43:09.811Z,99030.47
2023-04-01T02:48:11.596Z,99041.47
2023-04-01T02:53:13.321Z,99057.94
2023-04-01T02:58:14.963Z,99059.88
2023-04-01T03:03:16.669Z,99072.09
2023-04-01T03:08:18.417Z,99087.28
2023-04-01T03:13:20.135Z,99093.56
2023-04-01T03:18:21.961Z,99103.94
2023-04-01T03:23:25.381Z,99103.78
2023-04-01T03:28:27.041Z,99109.72
2023-04-01T03:33:28.899Z,99124.69
2023-04-01T03:38:30.836Z,99141.19
2023-04-01T03:43:33.360Z,99142.78
2023-04-01T03:48:35.508Z,99148.75
2023-04-01T03:53:37.286Z,99155.09
2023-04-01T03:58:41.067Z,99164.41
2023-04-01T04:03:45.269Z,99178.53
2023-04-01T04:08:47.488Z,99188.91
2023-04-01T04:13:49.816Z,99198.50
2023-04-01T04:18:52.476Z,99212.91
2023-04-01T04:23:54.111Z,99217.16
2023-04-01T04:28:56.655Z,99214.19
2023-04-01T04:34:01.369Z,99226.66
2023-04-01T04:39:04.227Z,99244.41
2023-04-01T04:44:07.938Z,99255.63
2023-04-01T04:49:09.779Z,99257.88
2023-04-01T04:54:11.452Z,99260.28
2023-04-01T04:59:29.108Z,99274.81
2023-04-01T05:04:39.295Z,99293.25
2023-04-01T05:09:46.669Z,99298.06
2023-04-01T05:14:48.702Z,99305.94
2023-04-01T05:19:50.484Z,99306.97
2023-04-01T05:24:52.221Z,99324.44
2023-04-01T05:29:53.997Z,99326.84
2023-04-01T05:35:28.004Z,99336.84
2023-04-01T05:40:30.977Z,99341.94
2023-04-01T05:45:32.849Z,99350.53
2023-04-01T05:50:49.913Z,99356.25
2023-04-01T05:55:51.826Z,99359.84
2023-04-01T06:01:09.676Z,99368.50
2023-04-01T06:06:24.582Z,99376.75
2023-04-01T06:11:45.626Z,99382.88
2023-04-01T06:17:13.538Z,99396.03
2023-04-01T06:22:24.733Z,99405.56
2023-04-01T06:27:50.841Z,99402.41
2023-04-01T06:33:22.040Z,99417.63
2023-04-01T06:38:48.474Z,99424.16
2023-04-01T06:44:20.003Z,99440.66
2023-04-01T06:50:25.251Z,99440.88
2023-04-01T06:56:08.655Z,99455.88
2023-04-01T07:01:39.212Z,99468.97
2023-04-01T07:06:44.972Z,99478.47
2023-04-01T07:11:46.887Z,99483.75
2023-04-01T07:17:21.926Z,99490.94
2023-04-01T07:22:39.251Z,99497.72
2023-04-01T07:27:57.815Z,99502.97
2023-04-01T07:32:59.469Z,99504.88
2023-04-01T07:38:34.746Z,99512.53
2023-04-01T07:43:50.358Z,99516.78
2023-04-01T07:49:20.189Z,99530.72
2023-04-01T07:54:33.992Z,99537.28
2023-04-01T07:59:52.989Z,99537.28
2023-04-01T08:05:20.491Z,99552.50
2023-04-01T08:11:01.423Z,99563.50
2023-04-01T08:16:29.090Z,99576.00
2023-04-01T08:21:42.541Z,99576.22
2023-04-01T08:26:50.745Z,99584.44
2023-04-01T08:31:58.205Z,99598.19
2023-04-01T08:37:06.465Z,99592.94
2023-04-01T08:42:27.076Z,99605.63
2023-04-01T08:47:53.896Z,99608.59
2023-04-01T08:53:27.970Z,99622.53
2023-04-01T08:58:58.565Z,99627.22
2023-04-01T09:04:25.059Z,99632.31
2023-04-01T09:09:45.969Z,99638.88
2023-04-01T09:15:17.077Z,99640.34
2023-04-01T09:20:47.118Z,99648.16
2023-04-01T09:26:31.871Z,99650.50
2023-04-01T09:31:44.699Z,99657.69
2023-04-01T09:37:19.843Z,99659.41
2023-04-01T09:42:45.149Z,99668.94
2023-04-01T09:48:23.035Z,99678.84
2023-04-01T09:53:57.599Z,99678.84
2023-04-01T09:59:25.750Z,99686.06
2023-04-01T10:05:19.708Z,99698.75
2023-04-01T10:10:49.693Z,99702.56
2023-04-01T10:16:26.337Z,99703.41
2023-04-01T10:22:11.466Z,99711.03
2023-04-01T10:27:56.802Z,99718.25
2023-04-01T10:33:29.704Z,99719.09
2023-04-01T10:39:14.136Z,99730.13
2023-04-01T10:44:43.821Z,99726.28
2023-04-01T10:50:25.145Z,99732.88
2023-04-01T10:56:07.217Z,99744.09
2023-04-01T11:01:36.651Z,99747.06
2023-04-01T11:07:23.530Z,99751.50
2023-04-01T11:12:37.327Z,99755.53
2023-04-01T11:18:13.115Z,99763.16
2023-04-01T11:23:33.862Z,99763.16
2023-04-01T11:28:48.302Z,99775.44
2023-04-01T11:34:22.215Z,99776.28
2023-04-01T11:39:32.310Z,99786.47
2023-04-01T11:44:44.131Z,99793.25
2023-04-01T11:50:13.402Z,99799.19
2023-04-01T11:55:44.490Z,99797.06
2023-04-01T12:01:13.469Z,99811.06
2023-04-01T12:06:34.780Z,99813.81
2023-04-01T12:11:42.785Z,99822.72
2023-04-01T12:17:10.757Z,99827.16
2023-04-01T12:22:21.455Z,99840.75
2023-04-01T12:28:00.870Z,99848.38
2023-04-01T12:33:44.391Z,99853.47
2023-04-01T12:39:00.682Z,99856.84
2023-04-01T12:44:17.720Z,99871.25
2023-04-01T12:49:52.320Z,99875.25
2023-04-01T12:55:21.226Z,99882.66
2023-04-01T13:00:42.366Z,99881.84
2023-04-01T13:06:15.654Z,99890.13
2023-04-01T13:11:28.685Z,99902.41
2023-04-01T13:16:40.411Z,99906.91
2023-04-01T13:22:15.182Z,99914.97
2023-04-01T13:27:50.926Z,99927.03
2023-04-01T13:33:09.512Z,99944.84
2023-04-01T13:38:35.337Z,99945.03
2023-04-01T13:43:46.337Z,99946.94
2023-04-01T13:49:00.987Z,99952.63
2023-04-01T13:54:39.187Z,99966.25
2023-04-01T14:00:14.659Z,99966.47
2023-04-01T14:05:43.276Z,99983.66
2023-04-01T14:11:08.264Z,99993.22
2023-04-01T14:16:45.501Z,100005.72
2023-04-01T14:22:21.573Z,100011.25
2023-04-01T14:27:29.491Z,100021.66
2023-04-01T14:32:43.168Z,100032.25
2023-04-01T14:37:57.072Z,100043.31
2023-04-01T14:43:10.855Z,100050.72
2023-04-01T14:48:33.233Z,100060.91
2023-04-01T14:53:42.726Z,100065.16
2023-04-01T14:58:59.290Z,100078.72
2023-04-01T15:04:37.919Z,100092.78
2023-04-01T15:09:44.316Z,100099.56
2023-04-01T15:14:55.649Z,100115.25
2023-04-01T15:20:16.051Z,100127.31
2023-04-01T15:25:58.287Z,100142.00
2023-04-01T15:31:20.204Z,100148.97
2023-04-01T15:36:45.173Z,100176.97
2023-04-01T15:42:02.534Z,100171.72
2023-04-01T15:47:37.940Z,100186.53
2023-04-01T15:52:42.540Z,100198.50
2023-04-01T15:57:52.788Z,100214.81
2023-04-01T16:03:11.140Z,100210.13
2023-04-01T16:08:42.863Z,100229.72
2023-04-01T16:14:08.176Z,100235.06
2023-04-01T16:19:28.060Z,100252.13
2023-04-01T16:24:46.777Z,100243.59
2023-04-01T16:30:04.161Z,100267.38
2023-04-01T16:35:41.342Z,100279.47
2023-04-01T16:40:49.173Z,100285.69
2023-04-01T16:46:16.390Z,100297.91
2023-04-01T16:51:20.116Z,100307.53
2023-04-01T16:56:24.772Z,100325.53
2023-04-01T17:01:42.749Z,100335.31
2023-04-01T17:06:47.394Z,100354.34
2023-04-01T17:12:02.792Z,100366.94
2023-04-01T17:17:43.574Z,100372.28
2023-04-01T17:22:54.183Z,100390.00
2023-04-01T17:28:10.375Z,100397.50
2023-04-01T17:33:44.006Z,100415.66
2023-04-01T17:39:02.633Z,100429.31
2023-04-01T17:44:13.337Z,100434.47
2023-04-01T17:49:27.228Z,100446.81
2023-04-01T17:54:51.110Z,100463.31
2023-04-01T18:00:20.819Z,100485.59
2023-04-01T18:05:29.176Z,100494.03
2023-04-01T18:10:52.944Z,100506.84
2023-04-01T18:16:36.327Z,100520.69
2023-04-01T18:21:48.450Z,100530.53
2023-04-01T18:27:12.446Z,100546.00
2023-04-01T18:32:22.990Z,100561.31
2023-04-01T18:37:55.792Z,100580.94
2023-04-01T18:43:19.517Z,100590.03
2023-04-01T18:48:23.910Z,100596.75
2023-04-01T18:53:36.104Z,100605.44
2023-04-01T18:58:51.239Z,100619.06
2023-04-01T19:04:14.008Z,100642.47
2023-04-01T19:09:24.095Z,100649.22
2023-04-01T19:15:00.466Z,100666.44
2023-04-01T19:20:26.924Z,100675.31
2023-04-01T19:25:40.080Z,100677.09
2023-04-01T19:30:54.836Z,100694.03
2023-04-01T19:36:18.101Z,100711.81
2023-04-01T19:41:42.054Z,100720.47
2023-04-01T19:46:50.267Z,100727.69
2023-04-01T19:52:30.005Z,100749.03
2023-04-01T19:57:46.323Z,100750.50
2023-04-01T20:03:04.441Z,100769.16
2023-04-01T20:08:56.942Z,100787.19
2023-04-01T20:14:29.132Z,100798.53
2023-04-01T20:19:53.530Z,100807.94
2023-04-01T20:25:01.593Z,100818.53
2023-04-01T20:30:37.332Z,100822.06
2023-04-01T20:35:45.024Z,100847.19
2023-04-01T20:40:52.052Z,100852.31
2023-04-01T20:46:00.190Z,100862.38
2023-04-01T20:51:18.480Z,100868.41
2023-04-01T20:56:34.154Z,100876.88
2023-04-01T21:02:03.140Z,100889.22
2023-04-01T21:07:43.695Z,100905.22
2023-04-01T21:13:03.209Z,100916.88
2023-04-01T21:18:12.574Z,100934.59
2023-04-01T21:23:20.586Z,100938.81
2023-04-01T21:28:35.465Z,100952.22
2023-04-01T21:34:03.514Z,100957.03
2023-04-01T21:39:37.751Z,100975.94
2023-04-01T21:45:00.969Z,100973.81
2023-04-01T21:50:29.139Z,100993.56
2023-04-01T21:56:01.273Z,100997.50
2023-04-01T22:01:11.012Z,101011.47
2023-04-01T22:06:25.965Z,101025.41
2023-04-01T22:12:02.425Z,101023.41
2023-04-01T22:17:18.106Z,101038.47
2023-04-01T22:22:41.112Z,101050.84
2023-04-01T22:27:50.364Z,101066.53
2023-04-01T22:33:07.328Z,101066.69
2023-04-01T22:38:33.812Z,101074.84
2023-04-01T22:43:40.679Z,101080.88
2023-04-01T22:48:54.679Z,101099.75
2023-04-01T22:54:12.539Z,101111.47
2023-04-01T22:59:25.786Z,101116.41
2023-04-01T23:04:33.274Z,101132.72
2023-04-01T23:09:38.244Z,101132.50
2023-04-01T23:14:57.741Z,101151.09
2023-04-01T23:20:31.349Z,101163.09
2023-04-01T23:26:17.587Z,101168.13
2023-04-01T23:31:21.980Z,101171.22
2023-04-01T23:36:24.126Z,101186.06
2023-04-01T23:41:31.686Z,101189.84
2023-04-01T23:46:35.917Z,101197.72
2023-04-01T23:51:40.817Z,101205.44
2023-04-01T23:56:46.497Z,101203.84
